Shin Mei Maru — JG5617 — position and weather

sailwx.info

Track history (hours):
 
Tides and Currents Weather Stations Pressure Air Temp Water Temp Dewpoint Dewpoint Depression Visibility Wind Speed Wind Dir Waves Ship Positions

Shin Mei Maru

Last reported at 2015-May-27 18:11 UTC. Time now 2015-May-29 06:20 UTC.
Position N 35°40' E 141°02'.

Length 160 m; draft 6.8 m.

Type: Cargo ship. MMSI: 431100922.

Date/timePositionNaut miles runAvg speedWind from/ knotsBaromVisibWave heightAir tempDewpointWater temp
2015-May-27 18:11N 35°40' E 141°02'1420.3
2015-May-27 17:30N 35°29' E 140°51'2021.5
2015-May-27 16:33N 35°13' E 140°35'2019.7
2015-May-27 15:33N 34°60' E 140°17'1919.1
2015-May-27 14:33N 34°52' E 139°57'1616.0
2015-May-27 13:33N 35°03' E 139°43'1515.4
2015-May-27 12:33N 35°19' E 139°44'1515.1
2015-May-27 11:33N 35°33' E 139°51'7 6.7
2015-May-27 10:33N 35°38' E 139°46'0 0.0
2015-May-27 09:31N 35°38' E 139°46'0 0.0
2015-May-27 08:28N 35°38' E 139°46'0 0.0
2015-May-27 07:22N 35°38' E 139°46'0 0.4
2015-May-27 06:33N 35°38' E 139°46'1212.3
2015-May-27 05:33N 35°25' E 139°48'1211.6
2015-May-27 04:33N 35°14' E 139°47'1818.3
2015-May-27 03:33N 34°59' E 139°34'5918.7
2015-May-27 00:25N 34°28' E 138°33'18216.8
2015-May-26 13:32N 33°56' E 134°56'2020.2
2015-May-26 12:34N 34°16' E 134°58'2019.8
2015-May-26 11:34N 34°32' E 135°13'1111.0
2015-May-26 10:33N 34°37' E 135°25'0 0.0
2015-May-26 09:22N 34°37' E 135°25'0 0.0
2015-May-26 08:28N 34°37' E 135°25'0 0.0
2015-May-26 07:28N 34°37' E 135°25'0 0.0
2015-May-26 06:28N 34°37' E 135°25'0 0.0
2015-May-26 05:22N 34°37' E 135°25'0 0.0
2015-May-26 04:22N 34°37' E 135°25'0 0.0
2015-May-26 03:32N 34°37' E 135°25'9 8.9
2015-May-26 02:33N 34°32' E 135°16'1818.2
2015-May-26 01:33N 34°19' E 135°00'1717.3
2015-May-26 00:33N 34°02' E 134°59'24016.0
2015-May-25 09:33N 35°05' E 139°40'1414.2
2015-May-25 08:33N 35°19' E 139°44'1514.8
2015-May-25 07:33N 35°32' E 139°51'7 6.9
2015-May-25 06:31N 35°38' E 139°46'0 0.0
2015-May-25 05:28N 35°38' E 139°46'0 0.0
2015-May-25 04:31N 35°38' E 139°46'0 0.0
2015-May-25 03:31N 35°38' E 139°46'0 0.0
2015-May-25 02:31N 35°38' E 139°46'0 0.0
2015-May-25 01:31N 35°38' E 139°46'0 0.0
2015-May-25 00:31N 35°38' E 139°46'0 0.0
2015-May-24 23:31N 35°38' E 139°46'0 0.0
2015-May-24 22:33N 35°38' E 139°46'8 7.5
2015-May-24 21:33N 35°32' E 139°52'1414.1
2015-May-24 20:33N 35°20' E 139°44'1313.3
2015-May-24 19:34N 35°06' E 139°44'1515.4
2015-May-24 18:34N 34°51' E 139°48'1716.5
2015-May-24 17:34N 34°55' E 140°07'2217.8
2015-May-24 16:20N 35°08' E 140°29'1516.9
2015-May-24 15:28N 35°20' E 140°40'1617.0
2015-May-24 14:32N 35°32' E 140°51'2718.4
2015-May-24 13:05N 35°57' E 141°03'1419.5
2015-May-24 12:22N 36°11' E 141°06'2419.9
2015-May-24 11:11N 36°34' E 141°11'  
2015-May-20 19:32N 35°54' E 141°03'1919.0
2015-May-20 18:33N 35°37' E 140°55'2121.1
2015-May-20 17:33N 35°19' E 140°40'2121.2
2015-May-20 16:33N 35°04' E 140°23'2120.7
2015-May-20 15:32N 34°52' E 140°01'1515.4
2015-May-20 14:34N 34°54' E 139°43'1918.9
2015-May-20 13:33N 35°13' E 139°46'1313.0
2015-May-20 12:33N 35°26' E 139°45'1212.2
2015-May-20 11:33N 35°38' E 139°46'0 0.2
2015-May-20 10:31N 35°38' E 139°46'0 0.0
2015-May-20 09:31N 35°38' E 139°46'0 0.0
2015-May-20 08:31N 35°38' E 139°46'0 0.0
2015-May-20 07:31N 35°38' E 139°46'0 0.1
2015-May-20 06:33N 35°38' E 139°46'1111.5
2015-May-20 05:33N 35°27' E 139°50'1211.7
2015-May-20 04:33N 35°16' E 139°47'1716.6
2015-May-20 03:33N 35°01' E 139°38'23917.1
2015-May-19 13:33N 33°53' E 134°59'1818.0
2015-May-19 12:33N 34°10' E 134°58'1716.8
2015-May-19 11:33N 34°26' E 135°05'1817.8
2015-May-19 10:33N 34°36' E 135°23'2 0.7
2015-May-19 08:20N 34°37' E 135°25'0 0.0
2015-May-19 07:26N 34°37' E 135°25'0 0.0
2015-May-19 06:32N 34°37' E 135°25'0 0.0
2015-May-19 05:26N 34°37' E 135°25'0 0.0
2015-May-19 04:20N 34°37' E 135°25'0 0.0
2015-May-19 03:08N 34°37' E 135°25'0 0.0
2015-May-19 02:20N 34°37' E 135°25'0 0.0
2015-May-19 01:26N 34°37' E 135°25'8 9.0
2015-May-19 00:33N 34°33' E 135°16'2019.7
2015-May-18 23:33N 34°19' E 134°60'2119.9
2015-May-18 22:30N 33°58' E 134°59'24516.4
2015-May-18 07:32N 35°09' E 139°44'1212.6
2015-May-18 06:33N 35°21' E 139°42'1413.9
2015-May-18 05:33N 35°34' E 139°50'6 5.2
2015-May-18 04:29N 35°38' E 139°46'0 0.0
2015-May-18 03:29N 35°38' E 139°46'0 0.0
2015-May-18 02:29N 35°38' E 139°46'0 0.0
2015-May-18 01:29N 35°38' E 139°46'0 0.0
2015-May-18 00:20N 35°38' E 139°46'0 0.0
2015-May-17 23:26N 35°38' E 139°46'0 0.0
2015-May-17 22:26N 35°38' E 139°46'2 2.1
2015-May-17 21:33N 35°36' E 139°47'1212.5
2015-May-17 20:33N 35°24' E 139°46'1010.5
2015-May-17 19:33N 35°13' E 139°47'1717.1
2015-May-17 18:33N 34°57' E 139°42'  
Track history (hours):
 
Tides and Currents Weather Stations Pressure Air Temp Water Temp Dewpoint Dewpoint Depression Visibility Wind Speed Wind Dir Waves Ship Positions

Shin Mei Maru

Last reported at 2015-May-27 18:11 UTC. Time now 2015-May-29 06:20 UTC.
Position N 35°40' E 141°02'.

Length 160 m; draft 6.8 m.

Type: Cargo ship. MMSI: 431100922.

Date/timePositionNaut miles runAvg speedWind from/ knotsBaromVisibWave heightAir tempDewpointWater temp
2015-May-27 18:11N 35°40' E 141°02'1420.3
2015-May-27 17:30N 35°29' E 140°51'2021.5
2015-May-27 16:33N 35°13' E 140°35'2019.7
2015-May-27 15:33N 34°60' E 140°17'1919.1
2015-May-27 14:33N 34°52' E 139°57'1616.0
2015-May-27 13:33N 35°03' E 139°43'1515.4
2015-May-27 12:33N 35°19' E 139°44'1515.1
2015-May-27 11:33N 35°33' E 139°51'7 6.7
2015-May-27 10:33N 35°38' E 139°46'0 0.0
2015-May-27 09:31N 35°38' E 139°46'0 0.0
2015-May-27 08:28N 35°38' E 139°46'0 0.0
2015-May-27 07:22N 35°38' E 139°46'0 0.4
2015-May-27 06:33N 35°38' E 139°46'1212.3
2015-May-27 05:33N 35°25' E 139°48'1211.6
2015-May-27 04:33N 35°14' E 139°47'1818.3
2015-May-27 03:33N 34°59' E 139°34'5918.7
2015-May-27 00:25N 34°28' E 138°33'18216.8
2015-May-26 13:32N 33°56' E 134°56'2020.2
2015-May-26 12:34N 34°16' E 134°58'2019.8
2015-May-26 11:34N 34°32' E 135°13'1111.0
2015-May-26 10:33N 34°37' E 135°25'0 0.0
2015-May-26 09:22N 34°37' E 135°25'0 0.0
2015-May-26 08:28N 34°37' E 135°25'0 0.0
2015-May-26 07:28N 34°37' E 135°25'0 0.0
2015-May-26 06:28N 34°37' E 135°25'0 0.0
2015-May-26 05:22N 34°37' E 135°25'0 0.0
2015-May-26 04:22N 34°37' E 135°25'0 0.0
2015-May-26 03:32N 34°37' E 135°25'9 8.9
2015-May-26 02:33N 34°32' E 135°16'1818.2
2015-May-26 01:33N 34°19' E 135°00'1717.3
2015-May-26 00:33N 34°02' E 134°59'24016.0
2015-May-25 09:33N 35°05' E 139°40'1414.2
2015-May-25 08:33N 35°19' E 139°44'1514.8
2015-May-25 07:33N 35°32' E 139°51'7 6.9
2015-May-25 06:31N 35°38' E 139°46'0 0.0
2015-May-25 05:28N 35°38' E 139°46'0 0.0
2015-May-25 04:31N 35°38' E 139°46'0 0.0
2015-May-25 03:31N 35°38' E 139°46'0 0.0
2015-May-25 02:31N 35°38' E 139°46'0 0.0
2015-May-25 01:31N 35°38' E 139°46'0 0.0
2015-May-25 00:31N 35°38' E 139°46'0 0.0
2015-May-24 23:31N 35°38' E 139°46'0 0.0
2015-May-24 22:33N 35°38' E 139°46'8 7.5
2015-May-24 21:33N 35°32' E 139°52'1414.1
2015-May-24 20:33N 35°20' E 139°44'1313.3
2015-May-24 19:34N 35°06' E 139°44'1515.4
2015-May-24 18:34N 34°51' E 139°48'1716.5
2015-May-24 17:34N 34°55' E 140°07'2217.8
2015-May-24 16:20N 35°08' E 140°29'1516.9
2015-May-24 15:28N 35°20' E 140°40'1617.0
2015-May-24 14:32N 35°32' E 140°51'2718.4
2015-May-24 13:05N 35°57' E 141°03'1419.5
2015-May-24 12:22N 36°11' E 141°06'2419.9
2015-May-24 11:11N 36°34' E 141°11'  
2015-May-20 19:32N 35°54' E 141°03'1919.0
2015-May-20 18:33N 35°37' E 140°55'2121.1
2015-May-20 17:33N 35°19' E 140°40'2121.2
2015-May-20 16:33N 35°04' E 140°23'2120.7
2015-May-20 15:32N 34°52' E 140°01'1515.4
2015-May-20 14:34N 34°54' E 139°43'1918.9
2015-May-20 13:33N 35°13' E 139°46'1313.0
2015-May-20 12:33N 35°26' E 139°45'1212.2
2015-May-20 11:33N 35°38' E 139°46'0 0.2
2015-May-20 10:31N 35°38' E 139°46'0 0.0
2015-May-20 09:31N 35°38' E 139°46'0 0.0
2015-May-20 08:31N 35°38' E 139°46'0 0.0
2015-May-20 07:31N 35°38' E 139°46'0 0.1
2015-May-20 06:33N 35°38' E 139°46'1111.5
2015-May-20 05:33N 35°27' E 139°50'1211.7
2015-May-20 04:33N 35°16' E 139°47'1716.6
2015-May-20 03:33N 35°01' E 139°38'23917.1
2015-May-19 13:33N 33°53' E 134°59'1818.0
2015-May-19 12:33N 34°10' E 134°58'1716.8
2015-May-19 11:33N 34°26' E 135°05'1817.8
2015-May-19 10:33N 34°36' E 135°23'2 0.7
2015-May-19 08:20N 34°37' E 135°25'0 0.0
2015-May-19 07:26N 34°37' E 135°25'0 0.0
2015-May-19 06:32N 34°37' E 135°25'0 0.0
2015-May-19 05:26N 34°37' E 135°25'0 0.0
2015-May-19 04:20N 34°37' E 135°25'0 0.0
2015-May-19 03:08N 34°37' E 135°25'0 0.0
2015-May-19 02:20N 34°37' E 135°25'0 0.0
2015-May-19 01:26N 34°37' E 135°25'8 9.0
2015-May-19 00:33N 34°33' E 135°16'2019.7
2015-May-18 23:33N 34°19' E 134°60'2119.9
2015-May-18 22:30N 33°58' E 134°59'24516.4
2015-May-18 07:32N 35°09' E 139°44'1212.6
2015-May-18 06:33N 35°21' E 139°42'1413.9
2015-May-18 05:33N 35°34' E 139°50'6 5.2
2015-May-18 04:29N 35°38' E 139°46'0 0.0
2015-May-18 03:29N 35°38' E 139°46'0 0.0
2015-May-18 02:29N 35°38' E 139°46'0 0.0
2015-May-18 01:29N 35°38' E 139°46'0 0.0
2015-May-18 00:20N 35°38' E 139°46'0 0.0
2015-May-17 23:26N 35°38' E 139°46'0 0.0
2015-May-17 22:26N 35°38' E 139°46'2 2.1
2015-May-17 21:33N 35°36' E 139°47'1212.5
2015-May-17 20:33N 35°24' E 139°46'1010.5
2015-May-17 19:33N 35°13' E 139°47'1717.1
2015-May-17 18:33N 34°57' E 139°42'  

Dump ship's entire track history